Afton, Virginia
Current Conditions -  °F | °C
As of 11:55 PM on Friday 19 Dec 2014 (Local Time) from KW13 Reporting Station
Clear Clear  
Wind Chill: 26°   Ceiling: Unl
Heat Index: 26°   Visibility: 10mi
Dew Point: 20°   Wind: 3mph
Humidity: 80%   Direction: 300°WNW
Pressure: 30.21"   Gusts: NA
Location:  38°N, 78.78°W
Report Text: KW13 200455Z AUTO 30003KT 10SM CLR M03/M06 A3021 RMK AO1 T10351065 400421044
Loading
Personal Weather Stations






























Interactive Weather Map New forecast layout! Learn more

10-Day Weather Forecast

Advertisements
Track Severe Weather on mobile